Time;durP1;ratioP1;P1;durP2;ratioP2;P2;SDS_P1;SDS_P2;PMS_P1;PMS_P2;Temp;Humidity;BMP_temperature;BMP_pressure;BME280_temperature;BME280_humidity;BME280_pressure;Samples;Min_cycle;Max_cycle;Signal;HPM_P1;HPM_P2
2023/12/09 00:00:34;;;;;;;35.25;27.55;;;;;;;;;;5589439;31;35012;-69
2023/12/09 00:03:37;;;;;;;38.67;28.85;;;;;;;;;;5589329;31;35056;-70
2023/12/09 00:06:47;;;;;;;35.97;28.15;;;;;;;;;;5588670;31;35068;-70
2023/12/09 00:09:50;;;;;;;36.53;28.17;;;;;;;;;;5589803;31;34564;-70
2023/12/09 00:12:54;;;;;;;36.08;27.80;;;;;;;;;;5589289;31;34412;-70
2023/12/09 00:16:02;;;;;;;35.97;27.87;;;;;;;;;;5589499;31;34533;-70
2023/12/09 00:19:09;;;;;;;36.20;27.67;;;;;;;;;;5589254;31;35068;-70
2023/12/09 00:22:13;;;;;;;36.03;28.27;;;;;;;;;;5588525;31;35020;-71
2023/12/09 00:25:16;;;;;;;36.50;28.55;;;;;;;;;;5589235;31;34320;-70
2023/12/09 00:28:22;;;;;;;34.75;27.58;;;;;;;;;;5589144;31;34537;-70
2023/12/09 00:31:26;;;;;;;36.28;28.48;;;;;;;;;;5589293;31;34999;-70
2023/12/09 00:34:31;;;;;;;35.10;27.52;;;;;;;;;;5589137;31;34388;-70
2023/12/09 00:37:33;;;;;;;34.63;27.02;;;;;;;;;;5589123;31;35061;-70
2023/12/09 00:40:36;;;;;;;36.78;28.58;;;;;;;;;;5589052;31;35142;-71
2023/12/09 00:43:39;;;;;;;36.03;27.55;;;;;;;;;;5575135;31;34368;-70
2023/12/09 00:46:41;;;;;;;34.85;26.98;;;;;;;;;;5588995;31;32974;-70
2023/12/09 00:49:44;;;;;;;35.05;27.60;;;;;;;;;;5589081;31;35095;-70
2023/12/09 00:52:50;;;;;;;37.55;28.60;;;;;;;;;;5588868;31;35015;-70
2023/12/09 00:55:53;;;;;;;37.38;28.38;;;;;;;;;;5588956;31;34350;-70
2023/12/09 00:58:58;;;;;;;37.20;28.20;;;;;;;;;;5588757;31;34553;-70
2023/12/09 01:02:00;;;;;;;36.63;28.27;;;;;;;;;;5588563;31;34366;-70
2023/12/09 01:05:03;;;;;;;37.38;29.35;;;;;;;;;;5588867;31;34184;-70
2023/12/09 01:08:08;;;;;;;39.17;29.30;;;;;;;;;;5588953;31;35083;-71
2023/12/09 01:11:15;;;;;;;39.03;29.52;;;;;;;;;;5589129;31;34630;-70
2023/12/09 01:14:20;;;;;;;37.45;28.73;;;;;;;;;;5588709;31;35018;-70
2023/12/09 01:17:35;;;;;;;39.28;29.37;;;;;;;;;;5588799;31;35263;-71
2023/12/09 01:20:37;;;;;;;37.65;28.77;;;;;;;;;;5588780;31;34451;-70
2023/12/09 01:23:42;;;;;;;37.53;28.50;;;;;;;;;;5589240;31;34988;-71
2023/12/09 01:26:45;;;;;;;39.13;29.17;;;;;;;;;;5588902;31;34391;-70
2023/12/09 01:29:48;;;;;;;36.08;28.42;;;;;;;;;;5588000;31;34377;-71
2023/12/09 01:32:53;;;;;;;37.75;29.00;;;;;;;;;;5588683;31;34320;-71
2023/12/09 01:35:59;;;;;;;35.75;27.62;;;;;;;;;;5588755;31;34474;-70
2023/12/09 01:39:02;;;;;;;38.42;28.50;;;;;;;;;;5588674;31;34339;-71
2023/12/09 01:42:24;;;;;;;37.47;29.20;;;;;;;;;;5588590;31;35830;-71
2023/12/09 01:45:27;;;;;;;41.63;30.10;;;;;;;;;;5588862;31;34552;-70
2023/12/09 01:48:30;;;;;;;42.67;30.10;;;;;;;;;;5588452;31;34813;-70
2023/12/09 01:51:35;;;;;;;37.72;28.77;;;;;;;;;;5588552;31;34727;-70
2023/12/09 01:54:38;;;;;;;36.45;28.60;;;;;;;;;;5588531;31;32910;-71
2023/12/09 01:57:41;;;;;;;36.75;28.92;;;;;;;;;;5588492;31;35096;-70
2023/12/09 02:00:47;;;;;;;38.42;28.98;;;;;;;;;;5588438;31;34266;-70
2023/12/09 02:03:50;;;;;;;38.92;29.60;;;;;;;;;;5588419;31;35051;-70
2023/12/09 02:06:54;;;;;;;39.17;30.23;;;;;;;;;;5588333;31;34306;-70
2023/12/09 02:09:56;;;;;;;39.65;30.33;;;;;;;;;;5588800;31;34648;-70
2023/12/09 02:13:18;;;;;;;39.42;29.92;;;;;;;;;;5587361;31;34070;-70
2023/12/09 02:16:26;;;;;;;39.63;30.05;;;;;;;;;;5588140;31;34392;-70
2023/12/09 02:19:30;;;;;;;38.83;29.60;;;;;;;;;;5588183;31;34470;-70
2023/12/09 02:22:33;;;;;;;42.60;31.00;;;;;;;;;;5588283;31;35070;-71
2023/12/09 02:25:37;;;;;;;42.00;30.95;;;;;;;;;;5588303;31;34985;-70
2023/12/09 02:28:44;;;;;;;41.35;30.37;;;;;;;;;;5588232;31;35200;-70
2023/12/09 02:31:50;;;;;;;40.70;31.25;;;;;;;;;;5588134;31;35150;-70
2023/12/09 02:34:53;;;;;;;39.97;30.33;;;;;;;;;;5587995;31;34334;-71
2023/12/09 02:37:57;;;;;;;40.92;30.02;;;;;;;;;;5588481;31;34623;-70
2023/12/09 02:41:08;;;;;;;42.22;31.35;;;;;;;;;;5588071;31;34445;-71
2023/12/09 02:44:11;;;;;;;40.35;30.58;;;;;;;;;;5588289;31;34219;-71
2023/12/09 02:47:14;;;;;;;39.88;30.45;;;;;;;;;;5588176;31;34396;-72
2023/12/09 02:50:17;;;;;;;41.37;30.33;;;;;;;;;;5587957;31;35279;-71
2023/12/09 02:53:21;;;;;;;41.00;31.12;;;;;;;;;;5587303;31;34583;-71
2023/12/09 02:56:25;;;;;;;41.92;30.25;;;;;;;;;;5587088;31;34283;-70
2023/12/09 02:59:28;;;;;;;40.10;31.17;;;;;;;;;;5588368;31;34577;-71
2023/12/09 03:02:31;;;;;;;41.88;30.92;;;;;;;;;;5587934;31;34275;-71
2023/12/09 03:05:34;;;;;;;41.03;31.45;;;;;;;;;;5587814;31;34573;-70
2023/12/09 03:08:36;;;;;;;43.13;30.90;;;;;;;;;;5587821;31;35103;-71
2023/12/09 03:11:39;;;;;;;42.38;32.10;;;;;;;;;;5587731;31;34473;-70
2023/12/09 03:14:42;;;;;;;43.15;32.10;;;;;;;;;;5587726;31;34414;-70
2023/12/09 03:17:45;;;;;;;40.95;30.92;;;;;;;;;;5587561;31;34398;-70
2023/12/09 03:20:48;;;;;;;42.67;32.97;;;;;;;;;;5587340;31;35315;-70
2023/12/09 03:23:51;;;;;;;39.85;31.02;;;;;;;;;;5588823;31;34381;-70
2023/12/09 03:26:54;;;;;;;38.30;29.50;;;;;;;;;;5590165;31;34380;-70
2023/12/09 03:29:56;;;;;;;40.67;30.88;;;;;;;;;;5589866;31;34638;-70
2023/12/09 03:32:59;;;;;;;38.08;29.90;;;;;;;;;;5589949;31;34403;-70
2023/12/09 03:36:02;;;;;;;38.63;29.45;;;;;;;;;;5589778;31;35089;-70
2023/12/09 03:39:06;;;;;;;36.83;29.27;;;;;;;;;;5589806;31;34423;-70
2023/12/09 03:42:08;;;;;;;39.30;29.60;;;;;;;;;;5589684;31;34294;-71
2023/12/09 03:45:11;;;;;;;37.58;29.52;;;;;;;;;;5589739;31;34887;-70
2023/12/09 03:48:15;;;;;;;40.03;30.17;;;;;;;;;;5588980;31;34286;-71
2023/12/09 03:51:18;;;;;;;38.13;29.30;;;;;;;;;;5589694;31;34507;-71
2023/12/09 03:54:21;;;;;;;39.47;29.48;;;;;;;;;;5589991;31;34479;-71
2023/12/09 03:57:36;;;;;;;38.53;30.00;;;;;;;;;;5589638;31;35152;-71
2023/12/09 04:00:39;;;;;;;36.15;28.52;;;;;;;;;;5589410;31;34954;-71
2023/12/09 04:03:42;;;;;;;38.38;29.92;;;;;;;;;;5589634;31;34423;-71
2023/12/09 04:07:07;;;;;;;37.55;29.58;;;;;;;;;;5589110;31;35320;-71
2023/12/09 04:10:10;;;;;;;38.00;29.52;;;;;;;;;;5589915;31;34391;-71
2023/12/09 04:13:12;;;;;;;39.42;29.70;;;;;;;;;;5589470;31;35022;-71
2023/12/09 04:16:15;;;;;;;39.45;29.00;;;;;;;;;;5589675;31;34380;-71
2023/12/09 04:19:17;;;;;;;37.00;28.98;;;;;;;;;;5589481;31;34743;-72
2023/12/09 04:22:20;;;;;;;39.38;30.05;;;;;;;;;;5589360;31;34684;-71
2023/12/09 04:25:24;;;;;;;39.58;29.67;;;;;;;;;;5589402;31;35037;-71
2023/12/09 04:28:27;;;;;;;39.80;30.33;;;;;;;;;;5589246;31;34263;-71
2023/12/09 04:31:32;;;;;;;38.72;29.70;;;;;;;;;;5589553;31;34623;-71
2023/12/09 04:34:37;;;;;;;40.35;30.75;;;;;;;;;;5588470;31;35083;-71
2023/12/09 04:37:40;;;;;;;39.58;29.37;;;;;;;;;;5589317;31;34438;-71
2023/12/09 04:40:43;;;;;;;36.83;28.90;;;;;;;;;;5588383;31;34224;-71
2023/12/09 04:43:45;;;;;;;37.22;28.95;;;;;;;;;;5589207;31;33935;-71
2023/12/09 04:46:49;;;;;;;36.40;28.52;;;;;;;;;;5589157;31;34484;-71
2023/12/09 04:49:51;;;;;;;39.83;29.67;;;;;;;;;;5589454;31;34298;-71
2023/12/09 04:52:54;;;;;;;36.30;29.02;;;;;;;;;;5588994;31;34581;-71
2023/12/09 04:55:57;;;;;;;37.65;28.83;;;;;;;;;;5589054;31;34379;-71
2023/12/09 04:59:00;;;;;;;40.25;30.20;;;;;;;;;;5589030;31;35049;-71
2023/12/09 05:02:03;;;;;;;37.03;28.83;;;;;;;;;;5589106;31;34596;-71
2023/12/09 05:05:05;;;;;;;38.38;29.67;;;;;;;;;;5588948;31;34373;-71
2023/12/09 05:08:08;;;;;;;35.25;27.95;;;;;;;;;;5589273;31;35099;-71
2023/12/09 05:11:11;;;;;;;36.58;28.05;;;;;;;;;;5589069;31;34391;-72
2023/12/09 05:14:14;;;;;;;34.67;27.37;;;;;;;;;;5588789;31;35113;-72
2023/12/09 05:17:16;;;;;;;36.13;28.20;;;;;;;;;;5589221;31;35013;-71
2023/12/09 05:20:19;;;;;;;34.63;28.25;;;;;;;;;;5588822;31;35108;-71
2023/12/09 05:23:24;;;;;;;37.60;29.60;;;;;;;;;;5588016;31;34518;-71
2023/12/09 05:26:27;;;;;;;38.33;29.12;;;;;;;;;;5588797;31;34473;-71
2023/12/09 05:29:32;;;;;;;37.20;28.33;;;;;;;;;;5588837;31;34259;-71
2023/12/09 05:32:36;;;;;;;36.17;28.52;;;;;;;;;;5588710;31;34121;-71
2023/12/09 05:35:38;;;;;;;36.38;29.48;;;;;;;;;;5588641;31;34338;-70
2023/12/09 05:38:41;;;;;;;39.60;30.02;;;;;;;;;;5587786;31;34555;-70
2023/12/09 05:41:45;;;;;;;38.15;30.08;;;;;;;;;;5588388;31;34492;-70
2023/12/09 05:44:48;;;;;;;38.38;30.12;;;;;;;;;;5587627;31;34310;-71
2023/12/09 05:47:51;;;;;;;40.00;30.05;;;;;;;;;;5588457;31;34256;-71
2023/12/09 05:50:54;;;;;;;39.67;30.25;;;;;;;;;;5588294;31;34413;-70
2023/12/09 05:53:57;;;;;;;38.60;30.45;;;;;;;;;;5588433;31;35361;-71
2023/12/09 05:57:00;;;;;;;46.28;31.98;;;;;;;;;;5588369;31;34318;-70
2023/12/09 06:00:03;;;;;;;40.70;31.15;;;;;;;;;;5587754;31;34437;-70
2023/12/09 06:03:11;;;;;;;41.55;31.37;;;;;;;;;;5588893;31;34099;-72
2023/12/09 06:06:17;;;;;;;41.70;31.48;;;;;;;;;;5588867;31;34351;-71
2023/12/09 06:09:20;;;;;;;39.33;30.67;;;;;;;;;;5588263;31;34396;-71
2023/12/09 06:12:25;;;;;;;38.63;30.12;;;;;;;;;;5588361;31;34831;-71
2023/12/09 06:15:28;;;;;;;40.60;30.65;;;;;;;;;;5588478;31;34318;-71
2023/12/09 06:18:31;;;;;;;37.45;29.00;;;;;;;;;;5588357;31;34297;-71
2023/12/09 06:21:34;;;;;;;38.10;29.98;;;;;;;;;;5588519;31;34590;-70
2023/12/09 06:24:37;;;;;;;39.38;30.60;;;;;;;;;;5588206;31;34653;-71
2023/12/09 06:27:39;;;;;;;38.28;30.08;;;;;;;;;;5588300;31;35090;-71
2023/12/09 06:30:42;;;;;;;38.20;29.90;;;;;;;;;;5588124;31;34979;-70
2023/12/09 06:33:45;;;;;;;37.08;28.45;;;;;;;;;;5588439;31;35082;-70
2023/12/09 06:36:48;;;;;;;39.78;29.15;;;;;;;;;;5588083;31;35012;-70
2023/12/09 06:39:50;;;;;;;36.42;28.67;;;;;;;;;;5588224;31;34190;-71
2023/12/09 06:42:53;;;;;;;37.42;29.27;;;;;;;;;;5587861;31;35104;-70
2023/12/09 06:45:56;;;;;;;35.65;28.38;;;;;;;;;;5588025;31;34562;-71
2023/12/09 06:49:01;;;;;;;36.25;29.17;;;;;;;;;;5587888;31;34285;-70
2023/12/09 06:52:08;;;;;;;35.65;28.58;;;;;;;;;;5587909;31;34450;-71
2023/12/09 06:55:11;;;;;;;37.25;29.08;;;;;;;;;;5587866;31;34631;-71
2023/12/09 06:58:16;;;;;;;37.60;29.50;;;;;;;;;;5587237;31;34580;-70
2023/12/09 07:01:23;;;;;;;37.97;30.25;;;;;;;;;;5587783;31;35032;-70
2023/12/09 07:04:27;;;;;;;39.05;30.20;;;;;;;;;;5587581;31;35254;-71
2023/12/09 07:07:30;;;;;;;37.28;29.08;;;;;;;;;;5586893;31;34390;-70
2023/12/09 07:10:32;;;;;;;37.25;28.92;;;;;;;;;;5587667;31;35242;-71
2023/12/09 07:13:39;;;;;;;37.28;28.35;;;;;;;;;;5587314;31;34453;-70
2023/12/09 07:16:42;;;;;;;34.78;27.20;;;;;;;;;;5587542;31;34471;-70
2023/12/09 07:19:45;;;;;;;37.80;29.45;;;;;;;;;;5587789;31;34365;-70
2023/12/09 07:22:47;;;;;;;37.30;28.52;;;;;;;;;;5587404;31;34277;-70
2023/12/09 07:25:50;;;;;;;37.83;28.75;;;;;;;;;;5587459;31;35360;-70
2023/12/09 07:28:52;;;;;;;35.53;28.27;;;;;;;;;;5587416;31;35061;-70
2023/12/09 07:31:57;;;;;;;35.88;27.85;;;;;;;;;;5587219;31;35097;-72
2023/12/09 07:35:01;;;;;;;33.45;26.95;;;;;;;;;;5587123;31;34580;-71
2023/12/09 07:38:04;;;;;;;36.38;27.95;;;;;;;;;;5587511;31;35020;-71
2023/12/09 07:41:07;;;;;;;34.08;27.58;;;;;;;;;;5586704;31;35022;-70
2023/12/09 07:44:10;;;;;;;35.53;27.83;;;;;;;;;;5587012;31;34383;-71
2023/12/09 07:47:13;;;;;;;34.63;28.10;;;;;;;;;;5587001;31;34996;-72
2023/12/09 07:50:17;;;;;;;32.03;26.33;;;;;;;;;;5586409;31;34504;-71
2023/12/09 07:53:20;;;;;;;37.28;28.60;;;;;;;;;;5586737;31;35077;-71
2023/12/09 07:56:24;;;;;;;36.08;27.10;;;;;;;;;;5587213;31;34626;-71
2023/12/09 07:59:27;;;;;;;36.28;29.52;;;;;;;;;;5587067;31;35181;-72
2023/12/09 08:02:29;;;;;;;37.47;29.90;;;;;;;;;;5586722;31;34238;-71
2023/12/09 08:05:36;;;;;;;39.83;29.40;;;;;;;;;;5585709;31;34212;-71
2023/12/09 08:08:38;;;;;;;38.63;29.60;;;;;;;;;;5585746;31;34259;-70
2023/12/09 08:11:44;;;;;;;34.83;28.02;;;;;;;;;;5589012;31;34989;-71
2023/12/09 08:14:48;;;;;;;35.58;28.58;;;;;;;;;;5589628;31;35031;-70
2023/12/09 08:17:51;;;;;;;38.53;28.83;;;;;;;;;;5589723;31;34335;-70
2023/12/09 08:20:54;;;;;;;36.75;28.87;;;;;;;;;;5589435;31;34243;-71
2023/12/09 08:23:57;;;;;;;37.92;29.87;;;;;;;;;;5589445;31;34584;-71
2023/12/09 08:27:03;;;;;;;34.13;27.77;;;;;;;;;;5589120;31;34924;-71
2023/12/09 08:30:10;;;;;;;35.72;27.55;;;;;;;;;;5589384;31;35077;-71
2023/12/09 08:33:13;;;;;;;35.70;27.62;;;;;;;;;;5589240;31;34367;-71
2023/12/09 08:36:16;;;;;;;38.50;28.33;;;;;;;;;;5589639;31;35036;-71
2023/12/09 08:39:19;;;;;;;36.13;28.23;;;;;;;;;;5589609;31;34532;-71
2023/12/09 08:42:23;;;;;;;37.30;28.40;;;;;;;;;;5589206;31;35025;-70
2023/12/09 08:45:31;;;;;;;38.67;29.40;;;;;;;;;;5589710;31;34318;-70
2023/12/09 08:48:36;;;;;;;37.20;28.92;;;;;;;;;;5589075;31;34424;-71
2023/12/09 08:51:47;;;;;;;38.90;28.70;;;;;;;;;;5589208;31;34035;-70
2023/12/09 08:54:50;;;;;;;40.25;29.30;;;;;;;;;;5589048;31;34427;-70
2023/12/09 08:57:54;;;;;;;37.40;28.08;;;;;;;;;;5588262;31;34797;-71
2023/12/09 09:00:58;;;;;;;36.53;28.33;;;;;;;;;;5589004;31;34328;-70
2023/12/09 09:04:01;;;;;;;38.08;30.25;;;;;;;;;;5588068;31;34318;-71
2023/12/09 09:07:04;;;;;;;37.63;29.65;;;;;;;;;;5589133;31;34195;-70
2023/12/09 09:10:08;;;;;;;38.75;30.30;;;;;;;;;;5588945;31;35121;-70
2023/12/09 09:13:11;;;;;;;40.03;30.25;;;;;;;;;;5588694;31;34279;-71
2023/12/09 09:16:14;;;;;;;39.78;30.98;;;;;;;;;;5588020;31;35056;-71
2023/12/09 09:19:17;;;;;;;40.10;31.10;;;;;;;;;;5588749;31;35146;-71
2023/12/09 09:22:21;;;;;;;41.78;31.45;;;;;;;;;;5588422;31;34410;-71
2023/12/09 09:25:24;;;;;;;39.70;31.58;;;;;;;;;;5589185;31;34622;-71
2023/12/09 09:28:27;;;;;;;39.08;29.83;;;;;;;;;;5588594;31;34659;-70
2023/12/09 09:31:30;;;;;;;43.67;32.60;;;;;;;;;;5588574;31;34732;-70
2023/12/09 09:34:34;;;;;;;40.97;32.08;;;;;;;;;;5588362;31;34991;-71
2023/12/09 09:37:37;;;;;;;42.60;32.20;;;;;;;;;;5588565;31;35011;-70
2023/12/09 09:40:43;;;;;;;40.67;31.73;;;;;;;;;;5588683;31;34421;-70
2023/12/09 09:44:07;;;;;;;38.67;30.75;;;;;;;;;;5587676;31;34290;-71
2023/12/09 09:47:10;;;;;;;43.30;32.10;;;;;;;;;;5587959;31;35067;-70
2023/12/09 09:50:21;;;;;;;39.20;30.88;;;;;;;;;;5588458;31;34329;-70
2023/12/09 09:53:28;;;;;;;39.92;32.28;;;;;;;;;;5588942;31;34186;-70
2023/12/09 09:56:32;;;;;;;42.67;32.55;;;;;;;;;;5588404;31;34852;-71
2023/12/09 09:59:35;;;;;;;44.00;33.58;;;;;;;;;;5588349;31;34626;-70
2023/12/09 10:02:39;;;;;;;43.53;33.35;;;;;;;;;;5588306;31;34426;-70
2023/12/09 10:05:43;;;;;;;46.80;34.45;;;;;;;;;;5588684;31;35085;-70
2023/12/09 10:08:45;;;;;;;44.50;34.05;;;;;;;;;;5588431;31;35123;-70
2023/12/09 10:11:52;;;;;;;42.95;32.58;;;;;;;;;;5587543;31;35302;-70
2023/12/09 10:14:56;;;;;;;49.38;35.97;;;;;;;;;;5587851;31;35055;-70
2023/12/09 10:18:03;;;;;;;46.10;34.85;;;;;;;;;;5587518;31;34281;-71
2023/12/09 10:21:07;;;;;;;46.85;34.92;;;;;;;;;;5587943;31;35015;-71
2023/12/09 10:24:10;;;;;;;47.38;34.20;;;;;;;;;;5588283;31;34228;-70
2023/12/09 10:27:12;;;;;;;48.00;35.50;;;;;;;;;;5587420;31;35049;-70
2023/12/09 10:30:18;;;;;;;50.20;35.95;;;;;;;;;;5588307;31;34347;-71
2023/12/09 10:33:21;;;;;;;52.05;36.30;;;;;;;;;;5586381;31;35011;-70
2023/12/09 10:36:24;;;;;;;53.00;36.72;;;;;;;;;;5587458;31;34452;-70
2023/12/09 10:39:26;;;;;;;51.53;36.47;;;;;;;;;;5588455;31;34103;-71
2023/12/09 10:42:30;;;;;;;53.95;37.78;;;;;;;;;;5587966;31;34504;-71
2023/12/09 10:45:33;;;;;;;51.92;36.97;;;;;;;;;;5588211;31;34232;-71
2023/12/09 10:48:41;;;;;;;54.25;38.30;;;;;;;;;;5588123;31;35097;-70
2023/12/09 10:51:44;;;;;;;54.33;38.20;;;;;;;;;;5587742;31;35106;-70
2023/12/09 10:54:46;;;;;;;54.88;38.92;;;;;;;;;;5587678;31;35618;-69
2023/12/09 10:57:50;;;;;;;57.00;40.05;;;;;;;;;;5587865;31;34990;-70
2023/12/09 11:01:01;;;;;;;55.42;39.42;;;;;;;;;;5588157;31;34630;-70
2023/12/09 11:04:04;;;;;;;58.58;39.22;;;;;;;;;;5587842;31;34448;-72
2023/12/09 11:07:08;;;;;;;55.60;37.90;;;;;;;;;;5587751;31;34860;-70
2023/12/09 11:10:10;;;;;;;59.25;39.10;;;;;;;;;;5587542;31;34999;-70
2023/12/09 11:13:17;;;;;;;57.03;38.88;;;;;;;;;;5587242;31;35024;-71
2023/12/09 11:16:23;;;;;;;59.00;39.85;;;;;;;;;;5586631;31;35189;-70
2023/12/09 11:19:26;;;;;;;57.35;39.60;;;;;;;;;;5587657;31;34586;-70
2023/12/09 11:22:30;;;;;;;54.42;38.15;;;;;;;;;;5587325;31;35071;-71
2023/12/09 11:25:39;;;;;;;59.45;39.42;;;;;;;;;;5586460;31;35002;-70
2023/12/09 11:29:15;;;;;;;58.15;39.58;;;;;;;;;;5587222;31;34264;-70
2023/12/09 11:32:18;;;;;;;62.00;40.15;;;;;;;;;;5552757;31;34930;-70
2023/12/09 11:35:20;;;;;;;57.70;40.38;;;;;;;;;;5587132;31;34268;-71
2023/12/09 11:38:24;;;;;;;59.42;40.72;;;;;;;;;;5587509;31;34772;-71
2023/12/09 11:41:26;;;;;;;61.30;40.80;;;;;;;;;;5587396;31;34150;-70
2023/12/09 11:44:29;;;;;;;63.17;41.05;;;;;;;;;;5588468;31;35188;-70
2023/12/09 11:47:32;;;;;;;62.20;41.13;;;;;;;;;;5589122;31;34236;-71
2023/12/09 11:50:39;;;;;;;64.57;41.08;;;;;;;;;;5589393;31;35060;-70
2023/12/09 11:53:59;;;;;;;61.10;40.63;;;;;;;;;;5588836;31;34596;-70
2023/12/09 11:57:02;;;;;;;58.97;40.53;;;;;;;;;;5589805;31;34458;-69
2023/12/09 12:00:11;;;;;;;53.15;35.80;;;;;;;;;;5589527;31;34427;-69
2023/12/09 12:03:14;;;;;;;54.80;37.28;;;;;;;;;;5589628;31;34635;-69
2023/12/09 12:06:17;;;;;;;56.22;37.30;;;;;;;;;;5589799;31;34432;-70
2023/12/09 12:09:22;;;;;;;58.80;37.65;;;;;;;;;;5589479;31;35519;-70
2023/12/09 12:12:26;;;;;;;55.65;36.78;;;;;;;;;;5589203;31;34540;-70
2023/12/09 12:15:29;;;;;;;54.88;36.58;;;;;;;;;;5585352;31;105900;-71
2023/12/09 12:18:33;;;;;;;56.67;36.95;;;;;;;;;;5589887;31;35000;-70
2023/12/09 12:21:36;;;;;;;53.67;36.42;;;;;;;;;;5589805;31;34193;-70
2023/12/09 12:24:43;;;;;;;57.38;38.20;;;;;;;;;;5589177;31;35026;-71
2023/12/09 12:27:46;;;;;;;59.08;37.47;;;;;;;;;;5589252;31;34511;-70
2023/12/09 12:31:02;;;;;;;63.35;40.28;;;;;;;;;;5589155;31;34940;-70
2023/12/09 12:34:17;;;;;;;63.45;39.88;;;;;;;;;;5589240;31;34574;-70
2023/12/09 12:37:20;;;;;;;71.18;42.85;;;;;;;;;;5588418;31;34308;-70
2023/12/09 12:40:24;;;;;;;68.70;42.28;;;;;;;;;;5588727;31;34443;-70
2023/12/09 12:43:30;;;;;;;68.07;43.05;;;;;;;;;;5588567;31;34312;-70
2023/12/09 12:46:34;;;;;;;70.85;42.15;;;;;;;;;;5587833;31;34345;-70
2023/12/09 12:49:37;;;;;;;72.65;43.28;;;;;;;;;;5588764;31;34539;-70
2023/12/09 12:52:41;;;;;;;69.35;42.10;;;;;;;;;;5588897;31;35036;-69
2023/12/09 12:55:43;;;;;;;71.12;42.83;;;;;;;;;;5588270;31;34387;-69
2023/12/09 12:58:46;;;;;;;67.57;41.75;;;;;;;;;;5588100;31;34957;-71
2023/12/09 13:01:50;;;;;;;69.50;42.28;;;;;;;;;;5588785;31;35059;-69
2023/12/09 13:04:53;;;;;;;73.90;43.13;;;;;;;;;;5588908;31;34740;-69
2023/12/09 13:07:55;;;;;;;66.75;41.83;;;;;;;;;;5589146;31;34375;-70
2023/12/09 13:10:58;;;;;;;63.72;37.92;;;;;;;;;;5588865;31;35051;-69
2023/12/09 13:14:03;;;;;;;63.15;39.85;;;;;;;;;;5588255;31;34386;-69
2023/12/09 13:17:06;;;;;;;66.30;41.60;;;;;;;;;;5588756;31;34448;-70
2023/12/09 13:20:10;;;;;;;64.62;39.63;;;;;;;;;;5588761;31;34510;-70
2023/12/09 13:23:13;;;;;;;71.05;42.47;;;;;;;;;;5588624;31;35170;-70
2023/12/09 13:26:16;;;;;;;66.60;41.28;;;;;;;;;;5588632;31;34539;-70
2023/12/09 13:29:22;;;;;;;66.25;41.40;;;;;;;;;;5588672;31;35082;-70
2023/12/09 13:32:24;;;;;;;66.20;40.38;;;;;;;;;;5587773;31;35084;-69
2023/12/09 13:35:38;;;;;;;64.28;40.65;;;;;;;;;;5588285;31;34521;-69
2023/12/09 13:38:42;;;;;;;61.90;40.00;;;;;;;;;;5588490;31;34230;-70
2023/12/09 13:41:45;;;;;;;69.65;42.80;;;;;;;;;;5588602;31;35166;-70
2023/12/09 13:44:47;;;;;;;66.03;41.50;;;;;;;;;;5588745;31;34798;-70
2023/12/09 13:47:50;;;;;;;69.53;43.60;;;;;;;;;;5587566;31;34302;-69
2023/12/09 13:50:53;;;;;;;67.78;42.90;;;;;;;;;;5588649;31;35157;-69
2023/12/09 13:54:03;;;;;;;72.03;44.50;;;;;;;;;;5588384;31;34431;-70
2023/12/09 13:57:08;;;;;;;67.78;43.67;;;;;;;;;;5588404;31;34268;-71
2023/12/09 14:00:13;;;;;;;67.75;42.97;;;;;;;;;;5588616;31;34459;-69
2023/12/09 14:03:16;;;;;;;71.82;45.03;;;;;;;;;;5588688;31;35059;-70
2023/12/09 14:06:19;;;;;;;78.97;49.35;;;;;;;;;;5587605;31;34843;-70
2023/12/09 14:09:24;;;;;;;70.90;43.65;;;;;;;;;;5587305;31;34494;-71
2023/12/09 14:12:30;;;;;;;67.80;43.45;;;;;;;;;;5588364;31;35146;-71
2023/12/09 14:15:40;;;;;;;67.07;42.60;;;;;;;;;;5587553;31;34952;-72
2023/12/09 14:18:43;;;;;;;75.40;46.65;;;;;;;;;;5588392;31;34198;-71
2023/12/09 14:21:47;;;;;;;68.78;43.63;;;;;;;;;;5588311;31;34769;-71
2023/12/09 14:24:50;;;;;;;70.57;44.90;;;;;;;;;;5588033;31;35079;-69
2023/12/09 14:27:54;;;;;;;70.28;44.95;;;;;;;;;;5587505;31;35135;-70
2023/12/09 14:30:56;;;;;;;70.82;44.97;;;;;;;;;;5588054;31;34403;-69
2023/12/09 14:33:59;;;;;;;70.55;46.17;;;;;;;;;;5588025;31;34237;-69
2023/12/09 14:37:04;;;;;;;74.65;46.25;;;;;;;;;;5588205;31;34588;-70
2023/12/09 14:40:08;;;;;;;74.72;45.60;;;;;;;;;;5588144;31;35161;-70
2023/12/09 14:43:11;;;;;;;72.78;46.58;;;;;;;;;;5588145;31;34944;-72
2023/12/09 14:46:15;;;;;;;72.85;46.17;;;;;;;;;;5587977;31;34550;-70
2023/12/09 14:49:18;;;;;;;72.40;46.28;;;;;;;;;;5587882;31;35097;-70
2023/12/09 14:52:21;;;;;;;75.65;47.67;;;;;;;;;;5587989;31;34511;-70
2023/12/09 14:55:26;;;;;;;77.53;49.28;;;;;;;;;;5587577;31;34322;-70
2023/12/09 14:58:29;;;;;;;78.25;47.85;;;;;;;;;;5587712;31;34990;-70
2023/12/09 15:01:33;;;;;;;76.80;48.60;;;;;;;;;;5587705;31;35101;-69
2023/12/09 15:04:36;;;;;;;74.07;47.55;;;;;;;;;;5573908;31;35351;-69
2023/12/09 15:07:39;;;;;;;73.40;46.03;;;;;;;;;;5587369;31;34842;-70
2023/12/09 15:10:42;;;;;;;76.12;48.47;;;;;;;;;;5587687;31;35020;-70
2023/12/09 15:13:46;;;;;;;78.85;50.38;;;;;;;;;;5586743;31;34177;-70
2023/12/09 15:16:50;;;;;;;80.57;49.53;;;;;;;;;;5586620;31;34411;-70
2023/12/09 15:19:52;;;;;;;77.72;49.55;;;;;;;;;;5587035;31;34405;-70
2023/12/09 15:22:58;;;;;;;74.93;47.55;;;;;;;;;;5587586;31;34463;-70
2023/12/09 15:26:01;;;;;;;77.80;48.38;;;;;;;;;;5587519;31;35150;-70
2023/12/09 15:29:06;;;;;;;73.28;47.65;;;;;;;;;;5587399;31;35003;-70
2023/12/09 15:32:12;;;;;;;75.57;47.58;;;;;;;;;;5587113;31;34678;-70
2023/12/09 15:35:17;;;;;;;71.00;45.67;;;;;;;;;;5587391;31;34344;-70
2023/12/09 15:38:20;;;;;;;72.72;47.22;;;;;;;;;;5586988;31;35198;-70
2023/12/09 15:41:22;;;;;;;71.97;47.50;;;;;;;;;;5587282;31;34459;-71
2023/12/09 15:44:28;;;;;;;70.00;46.08;;;;;;;;;;5587073;31;34086;-70
2023/12/09 15:47:32;;;;;;;71.87;47.20;;;;;;;;;;5587216;31;34231;-70
2023/12/09 15:50:35;;;;;;;73.10;48.92;;;;;;;;;;5586868;31;34606;-70
2023/12/09 15:53:39;;;;;;;73.50;48.33;;;;;;;;;;5586257;31;34103;-70
2023/12/09 15:56:41;;;;;;;70.35;45.88;;;;;;;;;;5586935;31;34397;-69
2023/12/09 15:59:46;;;;;;;74.03;47.35;;;;;;;;;;5586739;31;35161;-69
2023/12/09 16:02:50;;;;;;;68.30;45.65;;;;;;;;;;5585883;31;35022;-69
2023/12/09 16:05:57;;;;;;;69.20;44.58;;;;;;;;;;5586739;31;35047;-70
2023/12/09 16:09:03;;;;;;;67.32;45.58;;;;;;;;;;5586105;31;34422;-70
2023/12/09 16:12:06;;;;;;;68.68;46.17;;;;;;;;;;5586593;31;35016;-70
2023/12/09 16:15:09;;;;;;;67.43;44.60;;;;;;;;;;5586254;31;35059;-71
2023/12/09 16:18:15;;;;;;;67.20;45.63;;;;;;;;;;5586517;31;35074;-70
2023/12/09 16:21:18;;;;;;;71.65;47.42;;;;;;;;;;5586377;31;35347;-70
2023/12/09 16:24:27;;;;;;;72.45;47.47;;;;;;;;;;5585556;31;35096;-70
2023/12/09 16:27:31;;;;;;;74.28;46.92;;;;;;;;;;5586596;31;34996;-71
2023/12/09 16:30:34;;;;;;;68.50;45.40;;;;;;;;;;5586261;31;34430;-71
2023/12/09 16:33:37;;;;;;;70.45;45.83;;;;;;;;;;5589414;31;34425;-70
2023/12/09 16:36:40;;;;;;;68.57;46.80;;;;;;;;;;5589414;31;34545;-70
2023/12/09 16:39:42;;;;;;;69.40;46.78;;;;;;;;;;5589248;31;35353;-71
2023/12/09 16:42:46;;;;;;;69.15;45.90;;;;;;;;;;5589475;31;34506;-70
2023/12/09 16:45:50;;;;;;;71.18;46.42;;;;;;;;;;5588972;31;34274;-72
2023/12/09 16:48:55;;;;;;;71.85;47.33;;;;;;;;;;5588817;31;34395;-70
2023/12/09 16:52:03;;;;;;;71.20;47.33;;;;;;;;;;5588742;31;34435;-70
2023/12/09 16:55:07;;;;;;;72.03;46.55;;;;;;;;;;5588220;31;34334;-69
2023/12/09 16:58:11;;;;;;;67.75;46.17;;;;;;;;;;5587980;31;34414;-69
2023/12/09 17:01:15;;;;;;;73.12;47.17;;;;;;;;;;5588944;31;34116;-70
2023/12/09 17:04:18;;;;;;;72.80;47.15;;;;;;;;;;5588158;31;35157;-70
2023/12/09 17:07:24;;;;;;;72.45;46.97;;;;;;;;;;5588526;31;35470;-70
2023/12/09 17:10:27;;;;;;;69.90;47.00;;;;;;;;;;5587633;31;34520;-69
2023/12/09 17:13:29;;;;;;;77.40;48.92;;;;;;;;;;5587987;31;34489;-70
2023/12/09 17:16:32;;;;;;;77.90;49.88;;;;;;;;;;5588745;31;34543;-71
2023/12/09 17:19:35;;;;;;;81.47;51.83;;;;;;;;;;5588782;31;35128;-70
2023/12/09 17:22:40;;;;;;;82.30;51.20;;;;;;;;;;5589033;31;34955;-70
2023/12/09 17:25:43;;;;;;;84.95;51.25;;;;;;;;;;5588627;31;35040;-69
2023/12/09 17:28:46;;;;;;;82.70;51.10;;;;;;;;;;5588553;31;34358;-69
2023/12/09 17:31:50;;;;;;;82.22;50.50;;;;;;;;;;5588609;31;34383;-69
2023/12/09 17:34:53;;;;;;;85.03;51.55;;;;;;;;;;5588727;31;34359;-69
2023/12/09 17:37:57;;;;;;;87.10;52.22;;;;;;;;;;5588746;31;34274;-69
2023/12/09 17:41:01;;;;;;;81.95;50.42;;;;;;;;;;5588316;31;34487;-70
2023/12/09 17:44:04;;;;;;;83.05;51.90;;;;;;;;;;5588215;31;34528;-71
2023/12/09 17:47:08;;;;;;;75.60;47.90;;;;;;;;;;5588311;31;34390;-70
2023/12/09 17:50:11;;;;;;;69.07;44.35;;;;;;;;;;5588532;31;34587;-70